sensor_id;sensor_type;location;lat;lon;timestamp;pressure;altitude;pressure_sealevel;temperature;humidity
79690;BME280;69156;55.932;-3.238;2024-03-23T00:55:47;99600.00;;;5.12;63.00
79690;BME280;69156;55.932;-3.238;2024-03-23T00:58:12;99599.00;;;5.05;63.00
79690;BME280;69156;55.932;-3.238;2024-03-23T01:00:38;99597.00;;;5.16;62.80
79690;BME280;69156;55.932;-3.238;2024-03-23T01:03:04;99598.00;;;5.13;63.20
79690;BME280;69156;55.932;-3.238;2024-03-23T01:05:30;99593.00;;;5.05;63.60
79690;BME280;69156;55.932;-3.238;2024-03-23T01:07:55;99577.00;;;5.03;63.60
79690;BME280;69156;55.932;-3.238;2024-03-23T01:10:21;99562.00;;;5.08;63.60
79690;BME280;69156;55.932;-3.238;2024-03-23T01:12:47;99572.00;;;4.92;64.00
79690;BME280;69156;55.932;-3.238;2024-03-23T01:15:12;99571.00;;;4.87;64.20
79690;BME280;69156;55.932;-3.238;2024-03-23T01:17:38;99569.00;;;4.76;64.30
79690;BME280;69156;55.932;-3.238;2024-03-23T01:20:04;99560.00;;;4.72;64.90
79690;BME280;69156;55.932;-3.238;2024-03-23T01:22:30;99561.00;;;4.65;65.00
79690;BME280;69156;55.932;-3.238;2024-03-23T01:24:55;99546.00;;;4.66;65.00
79690;BME280;69156;55.932;-3.238;2024-03-23T01:27:21;99548.00;;;4.81;64.90
79690;BME280;69156;55.932;-3.238;2024-03-23T01:29:46;99546.00;;;4.78;64.70
79690;BME280;69156;55.932;-3.238;2024-03-23T01:32:12;99544.00;;;4.80;64.10
79690;BME280;69156;55.932;-3.238;2024-03-23T01:34:37;99535.00;;;4.86;63.70
79690;BME280;69156;55.932;-3.238;2024-03-23T01:37:03;99546.00;;;4.75;63.70
79690;BME280;69156;55.932;-3.238;2024-03-23T01:39:29;99537.00;;;4.68;63.80
79690;BME280;69156;55.932;-3.238;2024-03-23T01:41:54;99535.00;;;4.71;63.80
79690;BME280;69156;55.932;-3.238;2024-03-23T01:44:20;99530.00;;;4.82;63.90
79690;BME280;69156;55.932;-3.238;2024-03-23T01:46:45;99532.00;;;4.71;63.80
79690;BME280;69156;55.932;-3.238;2024-03-23T01:49:11;99534.00;;;4.71;63.80
79690;BME280;69156;55.932;-3.238;2024-03-23T01:51:37;99527.00;;;4.71;63.50
79690;BME280;69156;55.932;-3.238;2024-03-23T01:54:04;99516.00;;;4.69;63.40
79690;BME280;69156;55.932;-3.238;2024-03-23T01:56:29;99514.00;;;4.78;62.90
79690;BME280;69156;55.932;-3.238;2024-03-23T01:58:55;99514.00;;;4.69;62.60
79690;BME280;69156;55.932;-3.238;2024-03-23T02:01:21;99507.00;;;4.83;62.20
79690;BME280;69156;55.932;-3.238;2024-03-23T02:03:46;99503.00;;;4.97;61.50
79690;BME280;69156;55.932;-3.238;2024-03-23T02:06:12;99498.00;;;4.87;61.20
79690;BME280;69156;55.932;-3.238;2024-03-23T02:08:38;99514.00;;;4.96;60.80
79690;BME280;69156;55.932;-3.238;2024-03-23T02:11:04;99515.00;;;5.07;60.40
79690;BME280;69156;55.932;-3.238;2024-03-23T02:13:30;99514.00;;;5.09;60.10
79690;BME280;69156;55.932;-3.238;2024-03-23T02:15:55;99511.00;;;5.23;60.00
79690;BME280;69156;55.932;-3.238;2024-03-23T02:18:21;99505.00;;;5.19;59.50
79690;BME280;69156;55.932;-3.238;2024-03-23T02:20:46;99502.00;;;5.10;59.90
79690;BME280;69156;55.932;-3.238;2024-03-23T02:23:13;99504.00;;;5.18;60.20
79690;BME280;69156;55.932;-3.238;2024-03-23T02:25:39;99511.00;;;4.98;60.70
79690;BME280;69156;55.932;-3.238;2024-03-23T02:28:05;99497.00;;;5.06;60.80
79690;BME280;69156;55.932;-3.238;2024-03-23T02:30:31;99500.00;;;5.15;60.90
79690;BME280;69156;55.932;-3.238;2024-03-23T02:32:56;99501.00;;;5.08;61.50
79690;BME280;69156;55.932;-3.238;2024-03-23T02:35:22;99493.00;;;5.11;61.50
79690;BME280;69156;55.932;-3.238;2024-03-23T02:37:48;99502.00;;;5.04;62.30
79690;BME280;69156;55.932;-3.238;2024-03-23T02:40:13;99489.00;;;5.00;62.40
79690;BME280;69156;55.932;-3.238;2024-03-23T02:42:39;99486.00;;;5.03;62.50
79690;BME280;69156;55.932;-3.238;2024-03-23T02:45:05;99484.00;;;4.95;63.00
79690;BME280;69156;55.932;-3.238;2024-03-23T02:47:30;99484.00;;;4.93;63.00
79690;BME280;69156;55.932;-3.238;2024-03-23T02:49:56;99467.00;;;4.93;63.20
79690;BME280;69156;55.932;-3.238;2024-03-23T02:52:22;99457.00;;;5.06;62.70
79690;BME280;69156;55.932;-3.238;2024-03-23T02:54:47;99458.00;;;4.99;63.00
79690;BME280;69156;55.932;-3.238;2024-03-23T02:57:13;99461.00;;;4.89;62.90
79690;BME280;69156;55.932;-3.238;2024-03-23T02:59:38;99446.00;;;5.04;62.90
79690;BME280;69156;55.932;-3.238;2024-03-23T03:02:04;99440.00;;;4.86;62.90
79690;BME280;69156;55.932;-3.238;2024-03-23T03:04:30;99428.00;;;4.96;62.80
79690;BME280;69156;55.932;-3.238;2024-03-23T03:06:56;99433.00;;;4.94;62.40
79690;BME280;69156;55.932;-3.238;2024-03-23T03:09:22;99434.00;;;4.87;62.30
79690;BME280;69156;55.932;-3.238;2024-03-23T03:11:47;99425.00;;;4.88;61.70
79690;BME280;69156;55.932;-3.238;2024-03-23T03:14:13;99425.00;;;4.90;61.70
79690;BME280;69156;55.932;-3.238;2024-03-23T03:16:39;99422.00;;;4.95;61.70
79690;BME280;69156;55.932;-3.238;2024-03-23T03:19:04;99421.00;;;5.02;61.20
79690;BME280;69156;55.932;-3.238;2024-03-23T03:21:30;99410.00;;;5.10;61.00
79690;BME280;69156;55.932;-3.238;2024-03-23T03:23:56;99408.00;;;5.06;60.60
79690;BME280;69156;55.932;-3.238;2024-03-23T03:26:21;99411.00;;;5.19;60.50
79690;BME280;69156;55.932;-3.238;2024-03-23T03:28:47;99409.00;;;5.14;60.30
79690;BME280;69156;55.932;-3.238;2024-03-23T03:31:13;99419.00;;;5.03;60.10
79690;BME280;69156;55.932;-3.238;2024-03-23T03:33:38;99416.00;;;5.02;60.20
79690;BME280;69156;55.932;-3.238;2024-03-23T03:36:04;99414.00;;;5.16;59.90
79690;BME280;69156;55.932;-3.238;2024-03-23T03:38:30;99419.00;;;5.12;60.10
79690;BME280;69156;55.932;-3.238;2024-03-23T03:40:55;99402.00;;;5.04;60.20
79690;BME280;69156;55.932;-3.238;2024-03-23T03:43:21;99408.00;;;5.12;60.50
79690;BME280;69156;55.932;-3.238;2024-03-23T03:45:51;99399.00;;;5.01;60.90
79690;BME280;69156;55.932;-3.238;2024-03-23T03:48:17;99382.00;;;5.00;61.10
79690;BME280;69156;55.932;-3.238;2024-03-23T03:50:42;99381.00;;;5.12;60.80
79690;BME280;69156;55.932;-3.238;2024-03-23T03:53:08;99379.00;;;5.07;60.60
79690;BME280;69156;55.932;-3.238;2024-03-23T03:55:34;99382.00;;;5.06;60.60
79690;BME280;69156;55.932;-3.238;2024-03-23T03:57:59;99385.00;;;5.18;59.90
79690;BME280;69156;55.932;-3.238;2024-03-23T04:00:25;99390.00;;;4.96;59.90
79690;BME280;69156;55.932;-3.238;2024-03-23T04:02:50;99377.00;;;5.00;59.60
79690;BME280;69156;55.932;-3.238;2024-03-23T04:05:16;99377.00;;;4.99;59.60
79690;BME280;69156;55.932;-3.238;2024-03-23T04:07:42;99372.00;;;4.90;59.50
79690;BME280;69156;55.932;-3.238;2024-03-23T04:10:08;99364.00;;;5.07;59.40
79690;BME280;69156;55.932;-3.238;2024-03-23T04:12:34;99355.00;;;5.10;59.10
79690;BME280;69156;55.932;-3.238;2024-03-23T04:14:59;99353.00;;;5.00;59.70
79690;BME280;69156;55.932;-3.238;2024-03-23T04:17:26;99350.00;;;4.94;59.80
79690;BME280;69156;55.932;-3.238;2024-03-23T04:19:52;99344.00;;;4.87;60.20
79690;BME280;69156;55.932;-3.238;2024-03-23T04:22:17;99343.00;;;4.97;60.40
79690;BME280;69156;55.932;-3.238;2024-03-23T04:24:43;99344.00;;;4.81;60.80
79690;BME280;69156;55.932;-3.238;2024-03-23T04:27:08;99342.00;;;4.75;61.20
79690;BME280;69156;55.932;-3.238;2024-03-23T04:29:34;99331.00;;;4.84;61.10
79690;BME280;69156;55.932;-3.238;2024-03-23T04:31:59;99327.00;;;4.79;60.80
79690;BME280;69156;55.932;-3.238;2024-03-23T04:34:25;99314.00;;;4.85;60.70
79690;BME280;69156;55.932;-3.238;2024-03-23T04:36:51;99308.00;;;4.86;60.10
79690;BME280;69156;55.932;-3.238;2024-03-23T04:39:16;99308.00;;;4.90;60.10
79690;BME280;69156;55.932;-3.238;2024-03-23T04:41:42;99303.00;;;4.89;60.00
79690;BME280;69156;55.932;-3.238;2024-03-23T04:44:07;99299.00;;;4.99;59.50
79690;BME280;69156;55.932;-3.238;2024-03-23T04:46:33;99311.00;;;4.94;59.80
79690;BME280;69156;55.932;-3.238;2024-03-23T04:48:58;99307.00;;;5.05;59.70
79690;BME280;69156;55.932;-3.238;2024-03-23T04:51:24;99306.00;;;4.89;60.10
79690;BME280;69156;55.932;-3.238;2024-03-23T04:53:50;99302.00;;;4.93;60.00
79690;BME280;69156;55.932;-3.238;2024-03-23T04:56:15;99306.00;;;4.89;60.20
79690;BME280;69156;55.932;-3.238;2024-03-23T04:58:41;99303.00;;;4.92;60.10
79690;BME280;69156;55.932;-3.238;2024-03-23T05:01:07;99296.00;;;5.01;60.10
79690;BME280;69156;55.932;-3.238;2024-03-23T05:03:32;99288.00;;;4.98;60.30
79690;BME280;69156;55.932;-3.238;2024-03-23T05:05:58;99283.00;;;4.93;60.00
79690;BME280;69156;55.932;-3.238;2024-03-23T05:08:23;99278.00;;;5.09;60.20
79690;BME280;69156;55.932;-3.238;2024-03-23T05:10:49;99270.00;;;4.98;60.00
79690;BME280;69156;55.932;-3.238;2024-03-23T05:13:15;99278.00;;;4.98;60.30
79690;BME280;69156;55.932;-3.238;2024-03-23T05:15:40;99267.00;;;5.00;60.30
79690;BME280;69156;55.932;-3.238;2024-03-23T05:18:06;99279.00;;;4.98;60.30
79690;BME280;69156;55.932;-3.238;2024-03-23T05:20:32;99281.00;;;4.95;60.20
79690;BME280;69156;55.932;-3.238;2024-03-23T05:22:58;99282.00;;;5.05;60.30
79690;BME280;69156;55.932;-3.238;2024-03-23T05:25:23;99286.00;;;5.04;60.50
79690;BME280;69156;55.932;-3.238;2024-03-23T05:27:49;99270.00;;;4.93;60.90
79690;BME280;69156;55.932;-3.238;2024-03-23T05:30:14;99269.00;;;4.89;61.10
79690;BME280;69156;55.932;-3.238;2024-03-23T05:32:40;99261.00;;;4.89;61.20
79690;BME280;69156;55.932;-3.238;2024-03-23T05:35:06;99249.00;;;4.95;61.20
79690;BME280;69156;55.932;-3.238;2024-03-23T05:37:32;99248.00;;;4.81;61.40
79690;BME280;69156;55.932;-3.238;2024-03-23T05:39:58;99251.00;;;4.93;61.30
79690;BME280;69156;55.932;-3.238;2024-03-23T05:42:23;99231.00;;;5.06;61.10
79690;BME280;69156;55.932;-3.238;2024-03-23T05:44:49;99226.00;;;4.95;60.90
79690;BME280;69156;55.932;-3.238;2024-03-23T05:47:14;99256.00;;;4.84;61.10
79690;BME280;69156;55.932;-3.238;2024-03-23T05:49:40;99251.00;;;4.92;61.00
79690;BME280;69156;55.932;-3.238;2024-03-23T05:52:06;99243.00;;;5.00;61.10
79690;BME280;69156;55.932;-3.238;2024-03-23T05:54:32;99250.00;;;4.96;61.20
79690;BME280;69156;55.932;-3.238;2024-03-23T05:56:57;99253.00;;;5.01;61.20
79690;BME280;69156;55.932;-3.238;2024-03-23T05:59:23;99251.00;;;4.96;61.10
79690;BME280;69156;55.932;-3.238;2024-03-23T06:01:48;99252.00;;;4.90;60.90
79690;BME280;69156;55.932;-3.238;2024-03-23T06:04:14;99255.00;;;4.57;61.10
79690;BME280;69156;55.932;-3.238;2024-03-23T06:06:40;99244.00;;;4.88;60.70
79690;BME280;69156;55.932;-3.238;2024-03-23T06:09:05;99240.00;;;4.78;60.60
79690;BME280;69156;55.932;-3.238;2024-03-23T06:11:31;99243.00;;;4.95;60.40
79690;BME280;69156;55.932;-3.238;2024-03-23T06:13:57;99250.00;;;4.73;60.40
79690;BME280;69156;55.932;-3.238;2024-03-23T06:16:22;99246.00;;;5.00;59.50
79690;BME280;69156;55.932;-3.238;2024-03-23T06:18:48;99249.00;;;4.91;59.50
79690;BME280;69156;55.932;-3.238;2024-03-23T06:21:13;99258.00;;;4.94;59.50
79690;BME280;69156;55.932;-3.238;2024-03-23T06:23:40;99262.00;;;5.04;59.50
79690;BME280;69156;55.932;-3.238;2024-03-23T06:26:06;99262.00;;;4.89;59.80
79690;BME280;69156;55.932;-3.238;2024-03-23T06:28:31;99261.00;;;4.86;60.00
79690;BME280;69156;55.932;-3.238;2024-03-23T06:30:57;99256.00;;;4.87;59.90
79690;BME280;69156;55.932;-3.238;2024-03-23T06:33:22;99261.00;;;5.06;59.70
79690;BME280;69156;55.932;-3.238;2024-03-23T06:35:50;99251.00;;;4.98;59.90
79690;BME280;69156;55.932;-3.238;2024-03-23T06:38:15;99260.00;;;5.09;59.70
79690;BME280;69156;55.932;-3.238;2024-03-23T06:40:41;99247.00;;;5.14;59.50
79690;BME280;69156;55.932;-3.238;2024-03-23T06:43:06;99258.00;;;5.15;59.40
79690;BME280;69156;55.932;-3.238;2024-03-23T06:45:32;99269.00;;;5.11;59.60
79690;BME280;69156;55.932;-3.238;2024-03-23T06:47:58;99272.00;;;5.18;59.50
79690;BME280;69156;55.932;-3.238;2024-03-23T06:50:23;99274.00;;;5.12;59.80
79690;BME280;69156;55.932;-3.238;2024-03-23T06:52:49;99274.00;;;5.18;59.90
79690;BME280;69156;55.932;-3.238;2024-03-23T06:55:15;99275.00;;;5.11;59.60
79690;BME280;69156;55.932;-3.238;2024-03-23T06:57:40;99274.00;;;5.01;60.00
79690;BME280;69156;55.932;-3.238;2024-03-23T07:00:07;99268.00;;;5.12;59.70
79690;BME280;69156;55.932;-3.238;2024-03-23T07:02:32;99262.00;;;5.09;59.90
79690;BME280;69156;55.932;-3.238;2024-03-23T07:04:58;99264.00;;;5.20;59.80
79690;BME280;69156;55.932;-3.238;2024-03-23T07:07:24;99252.00;;;5.09;59.90
79690;BME280;69156;55.932;-3.238;2024-03-23T07:09:49;99232.00;;;5.19;59.30
79690;BME280;69156;55.932;-3.238;2024-03-23T07:12:15;99235.00;;;5.14;59.20
79690;BME280;69156;55.932;-3.238;2024-03-23T07:14:40;99229.00;;;5.33;58.90
79690;BME280;69156;55.932;-3.238;2024-03-23T07:17:06;99232.00;;;5.26;58.60
79690;BME280;69156;55.932;-3.238;2024-03-23T07:19:32;99238.00;;;5.34;58.20
79690;BME280;69156;55.932;-3.238;2024-03-23T07:21:57;99248.00;;;5.23;58.80
79690;BME280;69156;55.932;-3.238;2024-03-23T07:24:23;99247.00;;;5.27;58.50
79690;BME280;69156;55.932;-3.238;2024-03-23T07:26:48;99251.00;;;5.22;58.50
79690;BME280;69156;55.932;-3.238;2024-03-23T07:29:14;99258.00;;;5.27;58.60
79690;BME280;69156;55.932;-3.238;2024-03-23T07:31:39;99252.00;;;5.21;58.60
79690;BME280;69156;55.932;-3.238;2024-03-23T07:34:05;99251.00;;;5.30;58.40
79690;BME280;69156;55.932;-3.238;2024-03-23T07:36:31;99253.00;;;5.27;58.30
79690;BME280;69156;55.932;-3.238;2024-03-23T07:38:56;99251.00;;;5.42;58.00
79690;BME280;69156;55.932;-3.238;2024-03-23T07:41:22;99250.00;;;5.41;57.70
79690;BME280;69156;55.932;-3.238;2024-03-23T07:43:48;99262.00;;;5.36;57.90
79690;BME280;69156;55.932;-3.238;2024-03-23T07:46:14;99258.00;;;5.47;57.60
79690;BME280;69156;55.932;-3.238;2024-03-23T07:48:40;99256.00;;;5.53;57.60
79690;BME280;69156;55.932;-3.238;2024-03-23T07:51:08;99264.00;;;5.44;58.00
79690;BME280;69156;55.932;-3.238;2024-03-23T07:53:35;99277.00;;;5.69;57.60
79690;BME280;69156;55.932;-3.238;2024-03-23T07:56:02;99274.00;;;5.47;57.80
79690;BME280;69156;55.932;-3.238;2024-03-23T07:58:28;99274.00;;;5.52;57.80
79690;BME280;69156;55.932;-3.238;2024-03-23T08:00:54;99273.00;;;5.49;58.10
79690;BME280;69156;55.932;-3.238;2024-03-23T08:03:20;99278.00;;;5.58;58.40
79690;BME280;69156;55.932;-3.238;2024-03-23T08:05:46;99258.00;;;5.60;58.50
79690;BME280;69156;55.932;-3.238;2024-03-23T08:08:11;99252.00;;;5.68;58.70
79690;BME280;69156;55.932;-3.238;2024-03-23T08:10:37;99250.00;;;5.64;59.10
79690;BME280;69156;55.932;-3.238;2024-03-23T08:13:03;99244.00;;;5.69;59.10
79690;BME280;69156;55.932;-3.238;2024-03-23T08:15:30;99244.00;;;5.74;59.10
79690;BME280;69156;55.932;-3.238;2024-03-23T08:17:55;99250.00;;;5.85;58.70
79690;BME280;69156;55.932;-3.238;2024-03-23T08:20:21;99260.00;;;5.96;58.70
79690;BME280;69156;55.932;-3.238;2024-03-23T08:22:47;99257.00;;;5.96;58.60
79690;BME280;69156;55.932;-3.238;2024-03-23T08:25:12;99251.00;;;6.06;58.30
79690;BME280;69156;55.932;-3.238;2024-03-23T08:27:38;99255.00;;;6.09;58.20
79690;BME280;69156;55.932;-3.238;2024-03-23T08:30:04;99247.00;;;6.23;57.70
79690;BME280;69156;55.932;-3.238;2024-03-23T08:32:30;99228.00;;;6.36;57.20
79690;BME280;69156;55.932;-3.238;2024-03-23T08:34:56;99239.00;;;6.42;57.10
79690;BME280;69156;55.932;-3.238;2024-03-23T08:37:21;99234.00;;;6.52;57.00
79690;BME280;69156;55.932;-3.238;2024-03-23T08:39:47;99235.00;;;6.56;56.50
79690;BME280;69156;55.932;-3.238;2024-03-23T08:42:12;99227.00;;;6.73;56.50
79690;BME280;69156;55.932;-3.238;2024-03-23T08:44:38;99231.00;;;6.75;56.50
79690;BME280;69156;55.932;-3.238;2024-03-23T08:47:04;99226.00;;;6.64;56.40
79690;BME280;69156;55.932;-3.238;2024-03-23T08:49:30;99228.00;;;6.59;56.30
79690;BME280;69156;55.932;-3.238;2024-03-23T08:51:55;99224.00;;;6.61;56.40
79690;BME280;69156;55.932;-3.238;2024-03-23T08:54:21;99219.00;;;6.71;56.30
79690;BME280;69156;55.932;-3.238;2024-03-23T08:56:46;99219.00;;;6.83;55.70
79690;BME280;69156;55.932;-3.238;2024-03-23T08:59:12;99213.00;;;6.88;55.60
79690;BME280;69156;55.932;-3.238;2024-03-23T09:01:37;99222.00;;;6.72;56.10
79690;BME280;69156;55.932;-3.238;2024-03-23T09:04:03;99200.00;;;6.87;56.10
79690;BME280;69156;55.932;-3.238;2024-03-23T09:06:29;99201.00;;;6.72;56.20
79690;BME280;69156;55.932;-3.238;2024-03-23T09:08:55;99211.00;;;6.85;56.20
79690;BME280;69156;55.932;-3.238;2024-03-23T09:11:20;99212.00;;;6.85;56.10
79690;BME280;69156;55.932;-3.238;2024-03-23T09:13:46;99218.00;;;6.88;56.20
79690;BME280;69156;55.932;-3.238;2024-03-23T09:16:11;99201.00;;;6.93;56.20
79690;BME280;69156;55.932;-3.238;2024-03-23T09:18:37;99207.00;;;7.18;55.90
79690;BME280;69156;55.932;-3.238;2024-03-23T09:21:04;99220.00;;;7.19;56.10
79690;BME280;69156;55.932;-3.238;2024-03-23T09:23:30;99217.00;;;7.20;56.40
79690;BME280;69156;55.932;-3.238;2024-03-23T09:25:55;99213.00;;;7.13;56.70
79690;BME280;69156;55.932;-3.238;2024-03-23T09:28:22;99214.00;;;7.01;57.10
79690;BME280;69156;55.932;-3.238;2024-03-23T09:30:47;99185.00;;;7.05;57.00
79690;BME280;69156;55.932;-3.238;2024-03-23T09:33:13;99203.00;;;6.94;57.50
79690;BME280;69156;55.932;-3.238;2024-03-23T09:35:39;99189.00;;;6.88;57.20
79690;BME280;69156;55.932;-3.238;2024-03-23T09:38:05;99192.00;;;7.18;57.50
79690;BME280;69156;55.932;-3.238;2024-03-23T09:40:31;99212.00;;;7.35;57.00
79690;BME280;69156;55.932;-3.238;2024-03-23T09:42:57;99218.00;;;7.45;56.90
79690;BME280;69156;55.932;-3.238;2024-03-23T09:45:26;99227.00;;;7.33;57.20
79690;BME280;69156;55.932;-3.238;2024-03-23T09:47:52;99220.00;;;7.61;56.90
79690;BME280;69156;55.932;-3.238;2024-03-23T09:50:18;99194.00;;;7.41;56.60
79690;BME280;69156;55.932;-3.238;2024-03-23T09:52:45;99214.00;;;7.21;57.60
79690;BME280;69156;55.932;-3.238;2024-03-23T09:55:11;99210.00;;;7.44;57.40
79690;BME280;69156;55.932;-3.238;2024-03-23T09:57:37;99219.00;;;7.60;57.10
79690;BME280;69156;55.932;-3.238;2024-03-23T10:00:03;99221.00;;;7.66;56.80
79690;BME280;69156;55.932;-3.238;2024-03-23T10:02:29;99222.00;;;7.74;56.40
79690;BME280;69156;55.932;-3.238;2024-03-23T10:04:55;99220.00;;;7.61;56.80
79690;BME280;69156;55.932;-3.238;2024-03-23T10:07:21;99222.00;;;7.73;57.30
79690;BME280;69156;55.932;-3.238;2024-03-23T10:09:47;99220.00;;;7.63;57.40
79690;BME280;69156;55.932;-3.238;2024-03-23T10:12:14;99229.00;;;7.66;57.50
79690;BME280;69156;55.932;-3.238;2024-03-23T10:14:40;99234.00;;;7.72;57.50
79690;BME280;69156;55.932;-3.238;2024-03-23T10:17:15;99214.00;;;7.67;57.40
79690;BME280;69156;55.932;-3.238;2024-03-23T10:19:41;99215.00;;;7.83;57.40
79690;BME280;69156;55.932;-3.238;2024-03-23T10:22:07;99220.00;;;7.84;57.10
79690;BME280;69156;55.932;-3.238;2024-03-23T10:24:32;99228.00;;;7.76;57.60
79690;BME280;69156;55.932;-3.238;2024-03-23T10:26:58;99228.00;;;7.88;57.70
79690;BME280;69156;55.932;-3.238;2024-03-23T10:29:24;99215.00;;;7.88;57.30
79690;BME280;69156;55.932;-3.238;2024-03-23T10:31:49;99216.00;;;7.75;57.70
79690;BME280;69156;55.932;-3.238;2024-03-23T10:34:15;99208.00;;;7.87;57.60
79690;BME280;69156;55.932;-3.238;2024-03-23T10:36:41;99210.00;;;7.83;57.20
79690;BME280;69156;55.932;-3.238;2024-03-23T10:39:07;99211.00;;;7.59;57.50
79690;BME280;69156;55.932;-3.238;2024-03-23T10:41:33;99190.00;;;7.94;57.30
79690;BME280;69156;55.932;-3.238;2024-03-23T10:44:02;99211.00;;;8.12;56.20
79690;BME280;69156;55.932;-3.238;2024-03-23T10:46:27;99195.00;;;8.10;56.30
79690;BME280;69156;55.932;-3.238;2024-03-23T10:48:53;99200.00;;;8.19;55.80
79690;BME280;69156;55.932;-3.238;2024-03-23T10:51:18;99198.00;;;8.41;55.50
79690;BME280;69156;55.932;-3.238;2024-03-23T10:53:45;99180.00;;;8.52;55.20
79690;BME280;69156;55.932;-3.238;2024-03-23T10:56:12;99179.00;;;8.44;55.60
79690;BME280;69156;55.932;-3.238;2024-03-23T10:58:41;99170.00;;;8.52;55.30
79690;BME280;69156;55.932;-3.238;2024-03-23T11:01:10;99183.00;;;8.52;55.30
79690;BME280;69156;55.932;-3.238;2024-03-23T11:03:37;99187.00;;;8.54;55.60
79690;BME280;69156;55.932;-3.238;2024-03-23T11:06:04;99188.00;;;8.68;55.80
79690;BME280;69156;55.932;-3.238;2024-03-23T11:08:31;99189.00;;;8.97;54.70
79690;BME280;69156;55.932;-3.238;2024-03-23T11:11:15;99189.00;;;9.26;54.30
79690;BME280;69156;55.932;-3.238;2024-03-23T11:13:42;99182.00;;;9.11;54.30
79690;BME280;69156;55.932;-3.238;2024-03-23T11:16:13;99183.00;;;9.36;54.40
79690;BME280;69156;55.932;-3.238;2024-03-23T11:18:39;99169.00;;;9.43;53.20
79690;BME280;69156;55.932;-3.238;2024-03-23T11:21:06;99177.00;;;9.39;53.10
79690;BME280;69156;55.932;-3.238;2024-03-23T11:23:32;99176.00;;;9.70;52.90
79690;BME280;69156;55.932;-3.238;2024-03-23T11:25:57;99180.00;;;9.90;51.70
79690;BME280;69156;55.932;-3.238;2024-03-23T11:28:23;99162.00;;;10.05;50.90
79690;BME280;69156;55.932;-3.238;2024-03-23T11:30:49;99167.00;;;9.91;50.80
79690;BME280;69156;55.932;-3.238;2024-03-23T11:33:15;99174.00;;;9.74;51.30
79690;BME280;69156;55.932;-3.238;2024-03-23T11:35:41;99176.00;;;9.91;51.20
79690;BME280;69156;55.932;-3.238;2024-03-23T11:38:08;99176.00;;;10.28;50.50
79690;BME280;69156;55.932;-3.238;2024-03-23T11:40:35;99163.00;;;10.07;50.40
79690;BME280;69156;55.932;-3.238;2024-03-23T11:43:03;99186.00;;;9.94;50.80
79690;BME280;69156;55.932;-3.238;2024-03-23T11:45:31;99176.00;;;10.18;50.00
79690;BME280;69156;55.932;-3.238;2024-03-23T11:48:04;99180.00;;;10.20;50.20
79690;BME280;69156;55.932;-3.238;2024-03-23T11:50:30;99177.00;;;9.86;50.60
79690;BME280;69156;55.932;-3.238;2024-03-23T11:53:07;99188.00;;;9.83;51.30
79690;BME280;69156;55.932;-3.238;2024-03-23T11:55:39;99186.00;;;9.74;51.70
79690;BME280;69156;55.932;-3.238;2024-03-23T11:58:05;99181.00;;;10.08;51.70
79690;BME280;69156;55.932;-3.238;2024-03-23T12:00:30;99179.00;;;9.96;51.60
79690;BME280;69156;55.932;-3.238;2024-03-23T12:03:00;99175.00;;;10.14;51.20
79690;BME280;69156;55.932;-3.238;2024-03-23T12:05:26;99175.00;;;9.94;51.30
79690;BME280;69156;55.932;-3.238;2024-03-23T12:07:52;99179.00;;;10.19;51.10
79690;BME280;69156;55.932;-3.238;2024-03-23T12:10:19;99176.00;;;10.17;51.10
79690;BME280;69156;55.932;-3.238;2024-03-23T12:12:44;99172.00;;;10.19;50.10
79690;BME280;69156;55.932;-3.238;2024-03-23T12:15:10;99177.00;;;9.83;50.70
79690;BME280;69156;55.932;-3.238;2024-03-23T12:17:36;99171.00;;;9.96;50.90
79690;BME280;69156;55.932;-3.238;2024-03-23T12:20:02;99178.00;;;9.94;51.10
79690;BME280;69156;55.932;-3.238;2024-03-23T12:22:28;99180.00;;;10.16;50.40
79690;BME280;69156;55.932;-3.238;2024-03-23T12:24:53;99184.00;;;10.11;50.80
79690;BME280;69156;55.932;-3.238;2024-03-23T12:27:19;99156.00;;;10.08;50.30
79690;BME280;69156;55.932;-3.238;2024-03-23T12:29:45;99170.00;;;10.02;50.90
79690;BME280;69156;55.932;-3.238;2024-03-23T12:32:10;99170.00;;;9.97;51.00
79690;BME280;69156;55.932;-3.238;2024-03-23T12:34:36;99163.00;;;10.05;50.70
79690;BME280;69156;55.932;-3.238;2024-03-23T12:37:02;99172.00;;;10.22;49.90
79690;BME280;69156;55.932;-3.238;2024-03-23T12:39:27;99169.00;;;10.06;50.70
79690;BME280;69156;55.932;-3.238;2024-03-23T12:41:53;99171.00;;;10.50;50.20
79690;BME280;69156;55.932;-3.238;2024-03-23T12:44:19;99175.00;;;10.76;49.10
79690;BME280;69156;55.932;-3.238;2024-03-23T12:46:44;99168.00;;;10.23;48.30
79690;BME280;69156;55.932;-3.238;2024-03-23T12:49:10;99161.00;;;10.58;48.30
79690;BME280;69156;55.932;-3.238;2024-03-23T12:51:36;99173.00;;;10.62;48.20
79690;BME280;69156;55.932;-3.238;2024-03-23T12:54:02;99163.00;;;10.67;48.10
79690;BME280;69156;55.932;-3.238;2024-03-23T12:56:28;99164.00;;;10.48;50.30
79690;BME280;69156;55.932;-3.238;2024-03-23T12:58:53;99154.00;;;10.13;50.70
79690;BME280;69156;55.932;-3.238;2024-03-23T13:01:19;99169.00;;;10.22;50.60
79690;BME280;69156;55.932;-3.238;2024-03-23T13:03:46;99168.00;;;10.08;50.50
79690;BME280;69156;55.932;-3.238;2024-03-23T13:06:11;99172.00;;;10.08;50.90
79690;BME280;69156;55.932;-3.238;2024-03-23T13:08:37;99175.00;;;10.53;51.00
79690;BME280;69156;55.932;-3.238;2024-03-23T13:11:03;99174.00;;;10.75;50.30
79690;BME280;69156;55.932;-3.238;2024-03-23T13:13:28;99186.00;;;10.92;50.30
79690;BME280;69156;55.932;-3.238;2024-03-23T13:15:54;99188.00;;;10.90;49.80
79690;BME280;69156;55.932;-3.238;2024-03-23T13:18:20;99190.00;;;10.81;50.30
79690;BME280;69156;55.932;-3.238;2024-03-23T13:20:45;99181.00;;;10.62;49.80
79690;BME280;69156;55.932;-3.238;2024-03-23T13:23:11;99186.00;;;10.77;50.30
79690;BME280;69156;55.932;-3.238;2024-03-23T13:25:37;99186.00;;;10.60;50.70
79690;BME280;69156;55.932;-3.238;2024-03-23T13:28:02;99186.00;;;10.72;49.90
79690;BME280;69156;55.932;-3.238;2024-03-23T13:30:28;99193.00;;;10.69;50.10
79690;BME280;69156;55.932;-3.238;2024-03-23T13:32:54;99197.00;;;10.87;50.00
79690;BME280;69156;55.932;-3.238;2024-03-23T13:35:19;99186.00;;;10.93;49.20
79690;BME280;69156;55.932;-3.238;2024-03-23T13:37:45;99197.00;;;10.96;48.40
79690;BME280;69156;55.932;-3.238;2024-03-23T13:40:11;99187.00;;;10.88;47.40
79690;BME280;69156;55.932;-3.238;2024-03-23T13:42:37;99194.00;;;10.73;48.10
79690;BME280;69156;55.932;-3.238;2024-03-23T13:45:03;99196.00;;;10.68;47.70